Weather History for Gwinner, ND

Change the Weather History Date:

Thursday, May 16, 2013

  Actual Average (KP67) Record (KP67)
Temperature  
Mean Temperature 62 °F -  
Max Temperature 75 °F 64 °F 80 °F (1997)
Min Temperature 48 °F 45 °F 48 °F (1997)
Degree Days  
Heating Degree Days 4    
Growing Degree Days 12 (Base 50)    
Moisture  
Dew Point 41 °F    
Average Humidity 46    
Maximum Humidity 72    
Minimum Humidity 27    
Precipitation  
Precipitation 0.00 in - - ()
Sea Level Pressure  
Sea Level Pressure 29.89 in    
Wind  
Wind Speed 8 mph (NE)    
Max Wind Speed 29 mph    
Max Gust Speed 34 mph    
Visibility 10 miles    
Events      
Averages and records for this station are not official NWS values.
T = Trace of Precipitation, MM = Missing Value Source: NWS Daily Summary

Daily Weather History Graph

Daily Weather History Graph

Search for Another Location

Airport:

Trip Planner

Search our weather history database for the weather conditions in past years. The results will help you decide how hot, cold, wet, or windy it might be!

Date:

Astronomy

May. 16, 2013 Rise Set
Actual Time 5:56 AM CDT 8:58 PM CDT
Civil Twilight 5:20 AM CDT 9:33 PM CDT
Nautical Twilight 4:35 AM CDT 10:19 PM CDT
Astronomical Twilight 3:40 AM CDT 11:15 PM CDT
Moon 11:37 AM CDT (5/16) 1:14 AM CDT (5/16)
Length of Visible Light 16h 13m
Length of Day
15h 02m
Waxing Crescent, 36% of the Moon is Illuminated
May 16
Waxing Crescent
May 17
First Quarter
May 24
Full
May 31
Last Quarter
Jun 8
New

Hourly Weather History & Observations

Time (CDT) Temp. Dew Point Humidity Pressure Visibility Wind Dir Wind Speed Gust Speed Precip Events Conditions
12:15 AM 60.8 °F 33.8 °F 36% 29.88 in 10.0 mi North 6.9 mph - 0.00 in   Clear
12:35 AM 60.8 °F 33.8 °F 36% 29.88 in 10.0 mi North 5.8 mph - 0.00 in   Clear
12:55 AM 60.8 °F 33.8 °F 36% 29.89 in 10.0 mi North 4.6 mph - 0.00 in   Clear
1:15 AM 59.0 °F 33.8 °F 39% 29.89 in 10.0 mi Calm Calm - 0.00 in   Clear
1:35 AM 57.2 °F 33.8 °F 41% 29.89 in 10.0 mi North 3.5 mph - 0.00 in   Clear
1:55 AM 57.2 °F 37.4 °F 48% 29.89 in 10.0 mi Calm Calm - 0.00 in   Clear
2:15 AM 51.8 °F 37.4 °F 58% 29.89 in 10.0 mi Calm Calm - 0.00 in   Clear
2:35 AM 51.8 °F 35.6 °F 54% 29.89 in 10.0 mi Calm Calm - 0.00 in   Clear
2:55 AM 51.8 °F 37.4 °F 58% 29.88 in 10.0 mi Calm Calm - 0.00 in   Clear
3:15 AM 51.8 °F 35.6 °F 54% 29.88 in 10.0 mi Calm Calm - 0.00 in   Clear
3:35 AM 48.2 °F 37.4 °F 66% 29.88 in 10.0 mi Calm Calm - 0.00 in   Clear
3:55 AM 48.2 °F 35.6 °F 62% 29.89 in 10.0 mi Calm Calm - 0.00 in   Clear
4:15 AM 51.8 °F 37.4 °F 58% 29.89 in 10.0 mi Calm Calm - 0.00 in   Clear
4:55 AM 53.6 °F 37.4 °F 54% 29.90 in 10.0 mi Calm Calm - 0.00 in   Partly Cloudy
5:15 AM 55.4 °F 37.4 °F 51% 29.90 in 10.0 mi Calm Calm - 0.00 in   Clear
5:35 AM 51.8 °F 39.2 °F 62% 29.90 in 10.0 mi Calm Calm - 0.00 in   Clear
5:55 AM 50.0 °F 39.2 °F 66% 29.90 in 10.0 mi Calm Calm - 0.00 in   Clear
6:15 AM 51.8 °F 35.6 °F 54% 29.90 in 10.0 mi North 5.8 mph - 0.00 in   Clear
6:35 AM 51.8 °F 37.4 °F 58% 29.90 in 10.0 mi NE 6.9 mph - 0.00 in   Clear
6:55 AM 53.6 °F 37.4 °F 54% 29.90 in 10.0 mi NE 4.6 mph - 0.00 in   Clear
7:15 AM 55.4 °F 37.4 °F 51% 29.91 in 10.0 mi NE 4.6 mph - 0.00 in   Clear
7:35 AM 57.2 °F 39.2 °F 51% 29.91 in 10.0 mi ENE 4.6 mph - 0.00 in   Clear
7:55 AM 60.8 °F 39.2 °F 45% 29.91 in 10.0 mi ENE 6.9 mph - 0.00 in   Clear
8:15 AM 60.8 °F 39.2 °F 45% 29.91 in 10.0 mi East 5.8 mph - 0.00 in   Partly Cloudy
8:35 AM 62.6 °F 39.2 °F 42% 29.91 in 10.0 mi ENE 6.9 mph - 0.00 in   Scattered Clouds
8:55 AM 64.4 °F 41.0 °F 42% 29.91 in 10.0 mi ENE 8.1 mph - 0.00 in   Partly Cloudy
9:15 AM 66.2 °F 41.0 °F 40% 29.91 in 10.0 mi East 10.4 mph - 0.00 in   Partly Cloudy
9:35 AM 69.8 °F 41.0 °F 35% 29.91 in 10.0 mi East 12.7 mph - 0.00 in   Scattered Clouds
9:55 AM 69.8 °F 41.0 °F 35% 29.90 in 10.0 mi ESE 13.8 mph - 0.00 in   Partly Cloudy
10:15 AM 71.6 °F 42.8 °F 35% 29.89 in 10.0 mi ESE 12.7 mph - 0.00 in   Clear
10:35 AM 71.6 °F 42.8 °F 35% 29.89 in 10.0 mi ESE 13.8 mph - 0.00 in   Clear
10:55 AM 71.6 °F 42.8 °F 35% 29.89 in 10.0 mi ESE 13.8 mph - 0.00 in   Partly Cloudy
11:15 AM 71.6 °F 42.8 °F 35% 29.89 in 10.0 mi ESE 13.8 mph - 0.00 in   Scattered Clouds
11:35 AM 71.6 °F 42.8 °F 35% 29.90 in 10.0 mi ESE 12.7 mph - 0.00 in   Partly Cloudy
11:55 AM 71.6 °F 42.8 °F 35% 29.90 in 10.0 mi ESE 9.2 mph - 0.00 in   Partly Cloudy
12:15 PM 71.6 °F 42.8 °F 35% 29.91 in 10.0 mi East 4.6 mph - 0.00 in   Scattered Clouds
12:35 PM 73.4 °F 42.8 °F 33% 29.91 in 10.0 mi East 3.5 mph - 0.00 in   Partly Cloudy
12:55 PM 73.4 °F 42.8 °F 33% 29.91 in 10.0 mi NE 6.9 mph - 0.00 in   Clear
1:35 PM 73.4 °F 42.8 °F 33% 29.90 in 10.0 mi NNE 9.2 mph - 0.00 in   Mostly Cloudy
1:55 PM 75.2 °F 41.0 °F 29% 29.89 in 10.0 mi NNE 6.9 mph - 0.00 in   Scattered Clouds
2:15 PM 75.2 °F 41.0 °F 29% 29.89 in 10.0 mi NE 9.2 mph - 0.00 in   Partly Cloudy
2:35 PM 75.2 °F 39.2 °F 27% 29.88 in 10.0 mi NNE 9.2 mph - 0.00 in   Scattered Clouds
2:55 PM 75.2 °F 41.0 °F 29% 29.88 in 10.0 mi North 11.5 mph - 0.00 in   Mostly Cloudy
3:15 PM 75.2 °F 41.0 °F 29% 29.88 in 10.0 mi NNE 13.8 mph - 0.00 in   Scattered Clouds
3:35 PM 73.4 °F 39.2 °F 29% 29.88 in 10.0 mi NNE 13.8 mph - 0.00 in   Partly Cloudy
3:55 PM 73.4 °F 39.2 °F 29% 29.87 in 10.0 mi NE 16.1 mph - 0.00 in   Scattered Clouds
4:15 PM 73.4 °F 41.0 °F 31% 29.87 in 10.0 mi NNE 18.4 mph - 0.00 in   Mostly Cloudy
4:35 PM 71.6 °F 42.8 °F 35% 29.86 in 10.0 mi NE 17.3 mph 21.9 mph 0.00 in   Mostly Cloudy
4:55 PM 73.4 °F 42.8 °F 33% 29.85 in 10.0 mi NE 17.3 mph - 0.00 in   Mostly Cloudy
5:15 PM 71.6 °F 42.8 °F 35% 29.84 in 10.0 mi NE 24.2 mph 27.6 mph 0.00 in   Mostly Cloudy
5:35 PM 71.6 °F 42.8 °F 35% 29.84 in 10.0 mi NE 26.5 mph 29.9 mph 0.00 in   Mostly Cloudy
5:55 PM 71.6 °F 42.8 °F 35% 29.83 in 10.0 mi NE 24.2 mph 33.4 mph 0.00 in   Scattered Clouds
6:15 PM 69.8 °F 44.6 °F 40% 29.84 in 10.0 mi NNE 26.5 mph 31.1 mph 0.00 in   Mostly Cloudy
6:35 PM 64.4 °F 46.4 °F 52% 29.85 in 10.0 mi NNE 28.8 mph 34.5 mph 0.00 in   Mostly Cloudy
6:55 PM 62.6 °F 46.4 °F 55% 29.86 in 10.0 mi NNE 23.0 mph - 0.00 in   Mostly Cloudy
7:15 PM 62.6 °F 46.4 °F 55% 29.86 in 10.0 mi NNE 20.7 mph 25.3 mph 0.00 in   Mostly Cloudy
7:35 PM 62.6 °F 46.4 °F 55% 29.87 in 10.0 mi NNE 24.2 mph - 0.00 in   Mostly Cloudy
7:55 PM 62.6 °F 46.4 °F 55% 29.87 in 10.0 mi NNE 19.6 mph - 0.00 in   Mostly Cloudy
8:15 PM 62.6 °F 46.4 °F 55% 29.87 in 10.0 mi NE 18.4 mph - 0.00 in   Mostly Cloudy
8:35 PM 62.6 °F 46.4 °F 55% 29.87 in 10.0 mi NE 16.1 mph - 0.00 in   Overcast
8:55 PM 62.6 °F 44.6 °F 52% 29.87 in 10.0 mi NNE 15.0 mph - 0.00 in   Mostly Cloudy
9:15 PM 60.8 °F 44.6 °F 55% 29.88 in 10.0 mi NE 12.7 mph - 0.00 in   Mostly Cloudy
9:35 PM 60.8 °F 44.6 °F 55% 29.88 in 10.0 mi NNE 11.5 mph - 0.00 in   Scattered Clouds
9:55 PM 60.8 °F 46.4 °F 59% 29.89 in 10.0 mi NNE 13.8 mph - 0.00 in   Partly Cloudy
10:15 PM 59.0 °F 46.4 °F 63% 29.89 in 10.0 mi NNE 13.8 mph - 0.00 in   Clear
10:35 PM 57.2 °F 48.2 °F 72% 29.89 in 10.0 mi NNE 12.7 mph - 0.00 in   Partly Cloudy
10:55 PM 57.2 °F 48.2 °F 72% 29.89 in 10.0 mi NNE 11.5 mph - 0.00 in   Partly Cloudy
11:35 PM 57.2 °F 48.2 °F 72% 29.88 in 10.0 mi North 10.4 mph - 0.00 in   Mostly Cloudy
11:55 PM 57.2 °F 48.2 °F 72% 29.88 in 10.0 mi NNE 10.4 mph - 0.00 in   Mostly Cloudy